Stations météo

réclame
Mon MeteoGroup
Beitem, Belgique (6414): Température de l'air & dewpoint: 12.02.2019 17:00:00 - 18.02.2019 17:00:00 (CET)Beitem, Belgique (6414): Vitesse du vent & gusts: 12.02.2019 17:00:00 - 18.02.2019 17:00:00 (CET)Beitem, Belgique (6414): Direction du vent: 12.02.2019 17:00:00 - 18.02.2019 17:00:00 (CET)Beitem, Belgique (6414): reduced air pressure: 12.02.2019 17:00:00 - 18.02.2019 17:00:00 (CET)Beitem, Belgique (6414): Ensoleillement: 12.02.2019 17:00:00 - 18.02.2019 17:00:00 (CET)Beitem, Belgique (6414): Quantités de précipitations: 12.02.2019 17:00:00 - 18.02.2019 17:00:00 (CET)
Date & Time tt [°C] td [°C] ff [km/h] ff [knt] fx [km/h] fx [knt] dd ppp [hPa] sd [min] rr [mm]
18.02.2019 17:00:00 13,3 6,8 9 5 19 11 SSW 1015,2 60 0,0
18.02.2019 16:00:00 13,9 6,8 14 8 22 12 SSW 1015,5 60 0,0
18.02.2019 15:00:00 13,8 6,4 14 7 23 12 S 1015,5 60 0,0
18.02.2019 14:00:00 13,1 6,4 13 7 20 11 S 1016,2 60 0,0
18.02.2019 13:00:00 12,1 6,0 7 4 14 8 S 1017,3 60 0,0
18.02.2019 12:00:00 10,1 5,5 6 3 13 7 SSE 1017,8 60 0,0
18.02.2019 11:00:00 8,5 4,4 7 4 13 7 S 1018,4 60 0,0
18.02.2019 10:00:00 6,8 3,3 5 3 11 6 SSW 1018,7 60 0,0
18.02.2019 09:00:00 4,5 2,3 8 4 14 7 SSE 1018,5 27 0,0
18.02.2019 08:00:00 3,8 1,9 9 5 13 7 SSE 1018,5 0 0,0
18.02.2019 07:00:00 3,9 2,1 11 6 13 7 SSE 1018,6 0 0,0
18.02.2019 06:00:00 2,7 1,7 6 3 9 5 S 1018,8 0 0,0
18.02.2019 05:00:00 2,3 1,5 7 4 11 6 S 1018,7 0 0,0
18.02.2019 04:00:00 3,6 2,5 4 2 6 4 SE 1018,8 0 0,0
18.02.2019 03:00:00 3,4 2,1 4 2 13 7 SE 1019,2 0 0,0
18.02.2019 02:00:00 5,3 2,7 10 5 13 7 S 1019,1 0 0,0
18.02.2019 01:00:00 6,1 3,1 7 4 13 7 S 1019,1 0 0,0
18.02.2019 00:00:00 5,9 3,3 9 5 12 7 S 1019,1 0 0,0
17.02.2019 23:00:00 4,1 3,1 6 3 9 5 S 1019,4 0 0,0
17.02.2019 22:00:00 4,3 3,0 4 2 9 5 WSW 1019,6 0 0,0
17.02.2019 21:00:00 6,1 3,2 4 2 8 5 S 1019,5 0 0,0
17.02.2019 20:00:00 9,3 3,1 8 4 16 8 S 1019,4 0 0,0
17.02.2019 19:00:00 11,3 3,4 11 6 17 9 S 1018,7 0 0,0
17.02.2019 18:00:00 12,2 4,2 14 7 26 14 S 1018,3 48 0,0
17.02.2019 17:00:00 13,7 4,6 17 9 - - SSW 1017,8 50 0,0
17.02.2019 16:00:00 14,2 4,0 16 9 32 17 S 1018,1 60 0,0
17.02.2019 15:00:00 13,9 4,8 14 7 31 17 S 1018,0 60 0,0
17.02.2019 14:00:00 13,7 4,4 19 10 33 18 S 1018,2 60 0,0
17.02.2019 13:00:00 12,7 3,3 22 12 33 18 S 1019,1 60 0,0
17.02.2019 12:00:00 11,3 4,3 15 8 25 13 S 1019,4 60 0,0
17.02.2019 11:00:00 8,7 4,5 13 7 27 15 SSE 1019,8 60 0,0
17.02.2019 10:00:00 6,8 3,3 10 5 18 10 SSE 1020,4 60 0,0
17.02.2019 09:00:00 4,4 2,2 9 5 21 12 SSE 1020,6 11 0,0
17.02.2019 08:00:00 3,7 2,2 10 5 16 9 SSE 1020,8 0 0,0
17.02.2019 07:00:00 4,0 2,4 11 6 13 7 SSE 1020,9 0 0,0
17.02.2019 06:00:00 4,1 3,0 7 4 12 7 S 1021,4 0 0,0
17.02.2019 05:00:00 4,2 3,1 6 4 12 7 SSE 1021,8 0 0,0
17.02.2019 04:00:00 4,3 3,2 8 4 11 6 SSE 1022,5 0 0,0
17.02.2019 03:00:00 5,2 3,5 8 5 18 10 SSE 1023,0 0 0,0
17.02.2019 02:00:00 4,4 4,0 7 4 13 7 S 1023,2 0 0,0
17.02.2019 01:00:00 2,9 2,6 4 2 6 3 ESE 1023,7 0 0,0
17.02.2019 00:00:00 4,6 4,0 4 2 13 7 SE 1024,2 0 0,0
16.02.2019 23:00:00 3,0 3,0 4 2 6 3 S 1024,6 0 0,0
16.02.2019 22:00:00 3,7 3,7 4 2 8 4 ESE 1024,8 0 0,0
16.02.2019 21:00:00 4,3 4,1 4 2 8 4 S 1024,9 0 0,0
16.02.2019 20:00:00 6,7 5,5 4 2 10 5 SSE 1025,2 0 0,0
16.02.2019 19:00:00 6,8 5,2 4 2 9 5 S 1025,0 0 0,0
16.02.2019 18:00:00 10,4 6,7 4 2 11 6 SSW 1024,7 38 0,0
16.02.2019 17:00:00 12,9 6,5 8 5 14 8 S 1024,9 60 0,0
16.02.2019 16:00:00 12,7 6,9 10 5 17 9 SSW 1025,3 60 0,0
16.02.2019 15:00:00 13,1 7,6 11 6 18 10 SW 1025,7 60 0,0
16.02.2019 14:00:00 12,2 6,5 12 7 18 10 SW 1026,1 60 0,0
16.02.2019 13:00:00 11,3 5,8 11 6 19 11 SSW 1026,4 60 0,0
16.02.2019 12:00:00 9,2 5,3 14 7 22 12 SSW 1026,6 60 0,0
16.02.2019 11:00:00 6,9 4,3 13 7 19 10 SSW 1026,7 60 0,0
16.02.2019 10:00:00 4,7 3,2 12 6 16 8 SSW 1026,7 60 0,0
16.02.2019 09:00:00 3,0 2,3 7 4 12 7 S 1026,6 23 0,0
16.02.2019 08:00:00 2,5 1,9 8 4 13 7 S 1026,1 0 0,0
16.02.2019 07:00:00 3,2 2,4 11 6 17 9 S 1025,5 0 0,0
16.02.2019 06:00:00 3,4 2,5 10 6 19 11 S 1025,4 0 0,0
16.02.2019 05:00:00 3,3 2,6 10 5 16 9 S 1025,4 0 0,0
16.02.2019 04:00:00 4,3 3,2 11 6 20 11 S 1025,4 0 0,0
16.02.2019 03:00:00 4,0 3,1 12 7 16 9 S 1025,9 0 0,0
16.02.2019 02:00:00 3,7 3,0 9 5 11 6 S 1026,6 0 0,0
16.02.2019 01:00:00 - - - - - - - - 0 -
16.02.2019 00:00:00 6,7 4,3 9 5 16 9 S 1026,6 0 0,0
15.02.2019 23:00:00 6,3 4,2 7 4 18 10 S 1026,7 0 0,0
15.02.2019 22:00:00 7,7 4,6 12 7 16 9 S 1026,8 0 0,0
15.02.2019 21:00:00 8,0 4,3 9 5 14 8 S 1027,1 0 0,0
15.02.2019 20:00:00 7,3 4,0 7 4 11 6 S 1027,6 0 0,0
15.02.2019 19:00:00 10,7 4,1 7 4 10 6 SSE 1027,2 0 0,0
15.02.2019 18:00:00 12,8 4,4 6 4 13 7 SSE 1027,2 53 0,0
15.02.2019 17:00:00 14,2 4,0 9 5 19 10 SSE 1027,5 60 0,0
15.02.2019 16:00:00 14,7 4,9 8 5 17 9 SSE 1028,0 60 0,0
15.02.2019 15:00:00 14,0 3,7 11 6 17 9 S 1028,6 60 0,0
15.02.2019 14:00:00 13,3 3,3 11 6 23 12 S 1029,4 60 0,0
15.02.2019 13:00:00 12,0 3,1 14 8 23 13 S 1030,2 60 0,0
15.02.2019 12:00:00 9,7 3,0 11 6 18 10 S 1030,7 60 0,0
15.02.2019 11:00:00 7,1 2,6 8 5 18 10 SSE 1031,1 60 0,0
15.02.2019 10:00:00 5,4 1,4 10 5 16 9 S 1031,4 60 0,0
15.02.2019 09:00:00 3,0 0,5 7 4 9 5 SSE 1031,3 22 0,0
15.02.2019 08:00:00 2,6 0,7 6 4 9 5 SSE 1031,2 0 0,0
15.02.2019 07:00:00 2,2 0,8 7 4 12 7 SSE 1031,2 0 0,0
15.02.2019 06:00:00 2,5 1,0 8 5 11 6 SSE 1031,2 0 0,0
15.02.2019 05:00:00 -0,1 -0,1 4 2 7 4 SE 1031,2 0 0,0
15.02.2019 04:00:00 0,6 0,6 4 2 8 4 ESE 1031,6 0 0,0
15.02.2019 03:00:00 0,2 0,2 4 2 5 3 SE 1032,0 0 0,0
15.02.2019 02:00:00 0,5 0,5 5 3 8 4 E 1032,5 0 0,0
15.02.2019 01:00:00 1,0 1,0 7 4 6 4 E 1032,9 0 0,0
15.02.2019 00:00:00 0,8 0,8 0 0 6 3 N 1032,9 0 0,0
14.02.2019 23:00:00 2,5 2,1 4 2 7 4 ESE 1032,9 0 0,0
14.02.2019 22:00:00 2,2 2,1 5 3 8 4 SSE 1032,8 0 0,0
14.02.2019 21:00:00 3,6 2,9 5 3 6 4 SSE 1032,9 0 0,0
14.02.2019 20:00:00 4,6 3,2 4 2 6 3 SSE 1032,9 0 0,0
14.02.2019 19:00:00 6,2 3,5 4 2 7 4 ESE 1032,9 0 0,0
14.02.2019 18:00:00 10,2 4,2 7 4 11 6 SE 1033,1 51 0,0
14.02.2019 17:00:00 11,7 4,8 7 4 16 9 SE 1033,1 60 0,0
14.02.2019 16:00:00 11,7 4,0 13 7 20 11 SSE 1033,6 60 0,0
14.02.2019 15:00:00 11,7 3,8 12 6 20 11 SSE 1033,9 60 0,0
14.02.2019 14:00:00 11,0 3,6 15 8 22 12 S 1034,2 60 0,0
14.02.2019 13:00:00 9,5 3,5 11 6 16 8 SSE 1035,3 60 0,0
14.02.2019 12:00:00 8,0 3,1 - - - - - 1035,7 40 -
14.02.2019 11:00:00 5,4 2,6 10 6 16 9 SSE 1035,4 60 0,0
14.02.2019 10:00:00 3,5 1,7 6 3 9 5 SE 1036,0 60 0,0
14.02.2019 09:00:00 1,2 0,8 5 3 9 5 SE 1036,0 20 0,0
14.02.2019 08:00:00 0,1 0,1 5 3 9 5 SSE 1035,6 0 0,0
14.02.2019 07:00:00 -0,5 -0,5 4 2 10 5 E 1035,3 0 0,0
14.02.2019 06:00:00 1,2 0,5 9 5 15 8 S 1035,1 0 0,0
14.02.2019 05:00:00 1,2 0,5 6 3 12 7 SE 1035,2 0 0,0
14.02.2019 04:00:00 1,0 0,5 6 3 12 6 S 1034,9 0 0,0
14.02.2019 03:00:00 1,2 0,7 6 3 9 5 SSE 1035,2 0 0,0
14.02.2019 02:00:00 1,3 0,8 6 3 8 4 SE 1035,4 0 0,0
14.02.2019 01:00:00 0,8 0,7 4 2 6 4 SSE 1035,7 0 0,0
14.02.2019 00:00:00 2,3 1,7 8 4 12 6 S 1035,4 0 0,0
13.02.2019 23:00:00 2,1 1,7 0 0 11 6 N 1035,8 0 0,0
13.02.2019 22:00:00 3,1 2,3 7 4 13 7 S 1035,9 0 0,0
13.02.2019 21:00:00 3,6 2,5 8 4 16 9 S 1035,7 0 0,0
13.02.2019 20:00:00 4,0 2,6 9 5 15 8 S 1036,0 0 0,0
13.02.2019 19:00:00 5,1 2,4 7 4 16 9 S 1036,0 0 0,0
13.02.2019 18:00:00 6,1 2,6 12 6 20 11 S 1035,7 33 0,0
13.02.2019 17:00:00 7,3 2,9 14 8 26 14 SSW 1035,4 60 0,0
13.02.2019 16:00:00 7,9 3,1 19 10 26 14 SSW 1035,4 60 0,0
13.02.2019 15:00:00 7,9 2,9 18 10 29 16 SSW 1035,4 60 0,0
13.02.2019 14:00:00 7,7 3,2 17 9 26 14 SSW 1036,0 60 0,0
13.02.2019 13:00:00 6,7 2,8 18 10 26 14 SSW 1037,0 60 0,0
13.02.2019 12:00:00 5,7 2,8 14 8 22 12 SSW 1036,8 60 0,0
13.02.2019 11:00:00 4,2 2,4 15 8 25 13 SSW 1037,0 60 0,0
13.02.2019 10:00:00 2,7 1,6 14 8 22 12 S 1037,0 60 0,0
13.02.2019 09:00:00 1,9 1,2 13 7 24 13 S 1036,7 18 0,0
13.02.2019 08:00:00 3,4 2,0 14 7 21 11 SSW 1036,6 0 0,0
13.02.2019 07:00:00 4,1 2,6 14 8 21 11 SSW 1036,3 0 0,0
13.02.2019 06:00:00 4,4 2,8 13 7 22 12 S 1036,2 0 0,0
13.02.2019 05:00:00 4,4 3,0 11 6 18 10 S 1036,2 0 0,0
13.02.2019 04:00:00 4,5 3,1 11 6 20 11 SSW 1036,4 0 0,0
13.02.2019 03:00:00 4,3 3,0 13 7 21 11 S 1036,6 0 0,0
13.02.2019 02:00:00 4,0 2,7 11 6 19 10 SSW 1036,7 0 0,0
13.02.2019 01:00:00 3,8 2,7 11 6 21 11 S 1036,7 0 0,0
13.02.2019 00:00:00 3,6 2,4 10 6 16 9 SSW 1036,4 0 0,0
12.02.2019 23:00:00 4,0 2,4 11 6 16 9 SSW 1036,2 0 0,0
12.02.2019 22:00:00 4,1 2,8 9 5 16 8 SSW 1036,1 0 0,0
12.02.2019 21:00:00 5,2 3,6 11 6 14 8 SSW 1036,2 0 0,0
12.02.2019 20:00:00 4,9 3,3 8 4 14 8 SW 1036,1 0 0,0
12.02.2019 19:00:00 5,7 4,0 11 6 13 7 SSW 1035,8 0 0,0
12.02.2019 18:00:00 6,9 5,2 9 5 18 10 SSW 1035,6 0 0,0
12.02.2019 17:00:00 8,4 5,5 13 7 21 12 SW 1035,3 0 0,0

tt = Température de l'air
td = dewpoint
ff = Vitesse du vent
fx = gusts
dd = Direction du vent
ppp = reduced air pressure
sd = Ensoleillement
rr = Quantités de précipitations

stations d'obs. à proximité